createdAt,value
2018-02-13T00:00:23.228Z,6.80
2018-02-13T00:00:49.378Z,6.90
2018-02-13T00:01:42.771Z,7.70
2018-02-13T00:02:09.912Z,7.20
2018-02-13T00:02:35.885Z,6.90
2018-02-13T00:03:12.333Z,6.90
2018-02-13T00:04:12.767Z,8.10
2018-02-13T00:05:13.410Z,8.70
2018-02-13T00:06:34.316Z,7.30
2018-02-13T00:07:34.847Z,8.20
2018-02-13T00:08:34.382Z,8.40
2018-02-13T00:09:33.841Z,7.70
2018-02-13T00:10:34.129Z,8.30
2018-02-13T00:11:34.685Z,8.80
2018-02-13T00:12:33.896Z,8.10
2018-02-13T00:13:34.745Z,9.00
2018-02-13T00:14:55.563Z,8.20
2018-02-13T00:15:56.349Z,8.40
2018-02-13T00:16:55.966Z,8.50
2018-02-13T00:17:55.417Z,9.30
2018-02-13T00:18:55.968Z,9.20
2018-02-13T00:19:55.541Z,9.40
2018-02-13T00:21:17.152Z,8.60
2018-02-13T00:22:17.930Z,9.40
2018-02-13T00:23:17.703Z,9.00
2018-02-13T00:24:16.998Z,9.60
2018-02-13T00:25:17.736Z,9.10
2018-02-13T00:26:17.668Z,10.10
2018-02-13T00:27:18.301Z,10.40
2018-02-13T00:28:39.690Z,9.40
2018-02-13T00:29:39.968Z,9.50
2018-02-13T00:30:40.591Z,10.20
2018-02-13T00:31:40.419Z,10.60
2018-02-13T00:32:40.076Z,11.00
2018-02-13T00:33:39.410Z,11.10
2018-02-13T00:34:40.025Z,11.10
2018-02-13T00:35:39.462Z,10.60
2018-02-13T00:36:40.287Z,11.70
2018-02-13T00:37:39.751Z,11.10
2018-02-13T00:38:40.108Z,11.30
2018-02-13T00:39:39.606Z,10.80
2018-02-13T00:40:40.121Z,11.50
2018-02-13T00:41:39.765Z,12.50
2018-02-13T00:42:40.128Z,11.30
2018-02-13T00:43:39.764Z,11.90
2018-02-13T00:44:39.734Z,12.10
2018-02-13T00:45:40.585Z,11.90
2018-02-13T00:46:39.792Z,11.60
2018-02-13T00:47:40.602Z,11.60
2018-02-13T00:48:40.275Z,11.80
2018-02-13T00:49:40.046Z,11.60
2018-02-13T00:50:39.720Z,11.90
2018-02-13T00:52:02.799Z,11.70
2018-02-13T00:53:03.273Z,12.20
2018-02-13T00:54:24.915Z,11.90
2018-02-13T00:55:25.424Z,11.90
2018-02-13T00:56:25.218Z,12.20
2018-02-13T00:57:25.913Z,11.90
2018-02-13T00:58:25.673Z,12.50
2018-02-13T00:59:25.006Z,11.50
2018-02-13T01:00:25.659Z,12.50
2018-02-13T01:01:25.466Z,12.40
2018-02-13T01:02:25.132Z,11.50
2018-02-13T01:03:25.691Z,12.20
2018-02-13T01:04:25.432Z,11.50
2018-02-13T01:05:24.925Z,12.70
2018-02-13T01:06:25.292Z,11.80
2018-02-13T01:07:24.811Z,11.60
2018-02-13T01:08:25.078Z,11.10
2018-02-13T01:09:25.662Z,13.00
2018-02-13T01:10:25.171Z,12.10
2018-02-13T01:11:25.767Z,11.70
2018-02-13T01:12:25.285Z,12.60
2018-02-13T01:13:47.365Z,11.40
2018-02-13T01:14:48.435Z,12.60
2018-02-13T01:15:47.882Z,11.00
2018-02-13T01:16:47.276Z,12.20
2018-02-13T01:17:47.858Z,11.60
2018-02-13T01:18:47.253Z,12.50
2018-02-13T01:20:08.889Z,11.70
2018-02-13T01:21:09.700Z,12.00
2018-02-13T01:22:09.307Z,12.00
2018-02-13T01:23:09.650Z,12.10
2018-02-13T01:24:09.439Z,12.70
2018-02-13T01:25:09.704Z,12.30
2018-02-13T01:26:08.990Z,11.90
2018-02-13T01:27:09.775Z,12.50
2018-02-13T01:28:09.265Z,10.90
2018-02-13T01:29:09.945Z,12.30
2018-02-13T01:30:09.628Z,12.10
2018-02-13T01:31:09.343Z,11.30
2018-02-13T01:32:09.952Z,12.50
2018-02-13T01:33:09.144Z,12.20
2018-02-13T01:34:10.132Z,11.40
2018-02-13T01:35:09.868Z,12.90
2018-02-13T01:36:09.555Z,12.00
2018-02-13T01:37:09.350Z,11.60
2018-02-13T01:38:10.209Z,10.70
2018-02-13T01:39:09.691Z,11.00
2018-02-13T01:40:09.632Z,11.60
2018-02-13T01:41:09.393Z,11.50
2018-02-13T01:42:09.935Z,11.80
2018-02-13T01:43:09.544Z,12.30
2018-02-13T01:44:09.798Z,11.40
2018-02-13T01:45:09.368Z,12.50
2018-02-13T01:46:10.169Z,12.10
2018-02-13T01:47:10.034Z,11.30
2018-02-13T01:48:09.977Z,12.60
2018-02-13T01:49:09.923Z,11.50
2018-02-13T01:50:09.126Z,12.00
2018-02-13T01:51:09.815Z,11.80
2018-02-13T01:52:09.672Z,12.90
2018-02-13T01:53:09.082Z,11.70
2018-02-13T01:54:09.639Z,12.20
2018-02-13T01:55:09.205Z,11.30
2018-02-13T01:56:09.796Z,11.80
2018-02-13T01:57:09.260Z,10.20
2018-02-13T01:58:10.012Z,11.40
2018-02-13T01:59:09.828Z,10.60
2018-02-13T02:00:09.367Z,11.00
2018-02-13T02:01:09.798Z,11.00
2018-02-13T02:02:10.039Z,11.60
2018-02-13T02:03:09.379Z,10.80
2018-02-13T02:04:10.236Z,11.70
2018-02-13T02:05:09.559Z,11.60
2018-02-13T02:06:15.137Z,10.60
2018-02-13T02:07:09.949Z,10.20
2018-02-13T02:08:09.602Z,10.00
2018-02-13T02:09:09.380Z,10.90
2018-02-13T02:10:09.818Z,10.40
2018-02-13T02:11:09.102Z,11.10
2018-02-13T02:12:09.622Z,11.20
2018-02-13T02:13:09.265Z,10.60
2018-02-13T02:14:10.073Z,11.20
2018-02-13T02:15:09.913Z,9.70
2018-02-13T02:16:09.563Z,11.00
2018-02-13T02:17:30.540Z,10.70
2018-02-13T02:18:52.535Z,12.00
2018-02-13T02:19:53.455Z,12.20
2018-02-13T02:20:53.080Z,12.10
2018-02-13T02:21:52.513Z,12.30
2018-02-13T02:22:52.997Z,11.20
2018-02-13T02:23:53.219Z,11.30
2018-02-13T02:24:52.709Z,11.40
2018-02-13T02:25:54.240Z,11.50
2018-02-13T02:26:52.700Z,9.90
2018-02-13T02:27:53.109Z,11.30
2018-02-13T02:28:52.352Z,12.00
2018-02-13T02:29:53.267Z,10.50
2018-02-13T02:30:53.070Z,11.20
2018-02-13T02:31:52.384Z,11.40
2018-02-13T02:32:52.951Z,11.20
2018-02-13T02:33:53.530Z,11.00
2018-02-13T02:34:53.397Z,11.10
2018-02-13T02:35:53.179Z,10.80
2018-02-13T02:36:52.569Z,10.80
2018-02-13T02:37:53.379Z,10.90
2018-02-13T02:38:53.262Z,10.80
2018-02-13T02:39:53.081Z,10.90
2018-02-13T02:40:52.583Z,11.00
2018-02-13T02:41:52.848Z,10.80
2018-02-13T02:42:53.569Z,11.20
2018-02-13T02:43:52.948Z,11.20
2018-02-13T02:44:53.484Z,12.00
2018-02-13T02:45:53.257Z,11.30
2018-02-13T02:46:53.082Z,11.00
2018-02-13T02:47:53.058Z,10.70
2018-02-13T02:48:52.686Z,11.80
2018-02-13T02:49:53.464Z,11.90
2018-02-13T02:50:52.755Z,11.60
2018-02-13T02:51:53.659Z,11.40
2018-02-13T02:52:53.750Z,10.60
2018-02-13T02:53:53.166Z,11.60
2018-02-13T02:54:52.776Z,11.10
2018-02-13T02:55:53.222Z,11.50
2018-02-13T02:56:53.031Z,11.30
2018-02-13T02:57:52.865Z,11.40
2018-02-13T02:58:53.798Z,11.40
2018-02-13T02:59:53.308Z,11.90
2018-02-13T03:00:52.732Z,10.80
2018-02-13T03:01:53.366Z,11.60
2018-02-13T03:02:53.357Z,10.90
2018-02-13T03:04:14.328Z,10.70
2018-02-13T03:05:15.086Z,11.60
2018-02-13T03:06:14.812Z,12.30
2018-02-13T03:07:15.454Z,11.20
2018-02-13T03:08:15.102Z,11.50
2018-02-13T03:09:14.960Z,12.20
2018-02-13T03:10:14.626Z,11.40
2018-02-13T03:11:15.388Z,12.00
2018-02-13T03:12:15.055Z,12.20
2018-02-13T03:13:14.750Z,13.20
2018-02-13T03:14:15.543Z,12.50
2018-02-13T03:15:15.011Z,12.20
2018-02-13T03:16:14.432Z,11.80
2018-02-13T03:17:14.986Z,11.90
2018-02-13T03:18:14.419Z,13.60
2018-02-13T03:19:14.781Z,12.80
2018-02-13T03:20:14.249Z,12.00
2018-02-13T03:21:15.060Z,13.20
2018-02-13T03:22:14.585Z,12.10
2018-02-13T03:23:14.970Z,11.30
2018-02-13T03:24:14.324Z,11.60
2018-02-13T03:25:15.245Z,11.50
2018-02-13T03:27:08.289Z,11.30
2018-02-13T03:28:14.934Z,11.30
2018-02-13T03:29:14.652Z,11.10
2018-02-13T03:30:14.566Z,10.30
2018-02-13T03:31:15.423Z,11.40
2018-02-13T03:32:14.825Z,10.90
2018-02-13T03:33:14.291Z,10.80
2018-02-13T03:34:14.705Z,10.80
2018-02-13T03:35:14.459Z,11.20
2018-02-13T03:36:15.492Z,10.40
2018-02-13T03:37:14.720Z,9.70
2018-02-13T03:38:15.005Z,9.50
2018-02-13T03:39:14.511Z,10.90
2018-02-13T03:40:36.010Z,10.60
2018-02-13T03:41:37.072Z,10.10
2018-02-13T03:42:36.760Z,10.50
2018-02-13T03:43:36.311Z,9.80
2018-02-13T03:44:37.023Z,9.90
2018-02-13T03:45:36.427Z,9.60
2018-02-13T03:46:37.161Z,10.00
2018-02-13T03:47:36.423Z,9.80
2018-02-13T03:48:37.132Z,10.10
2018-02-13T03:49:36.506Z,9.90
2018-02-13T03:50:37.136Z,9.10
2018-02-13T03:51:37.051Z,9.30
2018-02-13T03:52:36.426Z,8.80
2018-02-13T03:53:36.734Z,8.80
2018-02-13T03:54:36.441Z,9.40
2018-02-13T03:55:37.183Z,9.00
2018-02-13T03:56:37.241Z,9.30
2018-02-13T03:57:36.872Z,9.30
2018-02-13T03:58:36.076Z,8.90
2018-02-13T03:59:36.535Z,8.30
2018-02-13T04:00:36.807Z,8.80
2018-02-13T04:01:36.441Z,9.00
2018-02-13T04:02:37.400Z,9.20
2018-02-13T04:03:36.755Z,8.40
2018-02-13T04:04:36.186Z,9.00
2018-02-13T04:05:58.231Z,9.30
2018-02-13T04:06:58.985Z,8.90
2018-02-13T04:07:58.167Z,8.40
2018-02-13T04:08:58.837Z,8.30
2018-02-13T04:09:58.137Z,8.40
2018-02-13T04:10:58.650Z,7.90
2018-02-13T04:11:58.335Z,8.00
2018-02-13T04:12:59.146Z,8.00
2018-02-13T04:13:58.471Z,9.00
2018-02-13T04:14:58.724Z,8.30
2018-02-13T04:15:58.016Z,9.00
2018-02-13T04:16:58.345Z,8.00
2018-02-13T04:17:58.677Z,7.30
2018-02-13T04:18:58.388Z,7.40
2018-02-13T04:19:58.946Z,8.00
2018-02-13T04:20:58.169Z,8.60
2018-02-13T04:21:58.671Z,8.70
2018-02-13T04:22:58.475Z,7.90
2018-02-13T04:23:59.205Z,7.90
2018-02-13T04:24:58.531Z,8.20
2018-02-13T04:25:59.032Z,7.70
2018-02-13T04:26:58.926Z,8.10
2018-02-13T04:27:58.047Z,8.60
2018-02-13T04:28:58.739Z,7.60
2018-02-13T04:29:58.755Z,7.90
2018-02-13T04:30:58.512Z,7.50
2018-02-13T04:31:59.141Z,7.70
2018-02-13T04:32:58.428Z,8.00
2018-02-13T04:33:57.967Z,7.80
2018-02-13T04:34:58.650Z,7.60
2018-02-13T04:35:57.915Z,7.60
2018-02-13T04:36:58.224Z,7.60
2018-02-13T04:37:58.955Z,7.60
2018-02-13T04:38:58.117Z,7.70
2018-02-13T04:39:58.376Z,7.40
2018-02-13T04:40:58.641Z,7.90
2018-02-13T04:41:58.083Z,7.10
2018-02-13T04:42:58.233Z,7.30
2018-02-13T04:43:58.531Z,6.50
2018-02-13T04:44:58.938Z,7.20
2018-02-13T04:45:58.632Z,6.80
2018-02-13T04:46:58.013Z,7.40
2018-02-13T04:47:58.510Z,6.90
2018-02-13T04:48:57.826Z,6.60
2018-02-13T04:49:58.100Z,7.60
2018-02-13T04:50:58.279Z,8.00
2018-02-13T04:51:59.063Z,8.30
2018-02-13T04:53:20.306Z,6.80
2018-02-13T04:54:20.525Z,6.50
2018-02-13T04:55:21.208Z,6.90
2018-02-13T04:56:42.339Z,7.50
2018-02-13T04:57:42.592Z,6.70
2018-02-13T04:58:42.721Z,7.10
2018-02-13T05:00:03.633Z,6.70
2018-02-13T05:01:04.259Z,6.60
2018-02-13T05:02:24.492Z,6.80
2018-02-13T05:03:24.950Z,7.30
2018-02-13T05:04:25.502Z,6.20
2018-02-13T05:05:24.844Z,6.90
2018-02-13T05:06:25.388Z,6.50
2018-02-13T05:07:25.312Z,6.30
2018-02-13T05:08:25.641Z,6.40
2018-02-13T05:09:25.134Z,6.80
2018-02-13T05:10:25.864Z,7.20
2018-02-13T05:11:25.059Z,6.50
2018-02-13T05:12:25.996Z,6.70
2018-02-13T05:13:25.774Z,6.90
2018-02-13T05:14:24.962Z,6.80
2018-02-13T05:15:25.708Z,6.80
2018-02-13T05:16:25.479Z,6.70
2018-02-13T05:17:24.948Z,6.60
2018-02-13T05:18:25.546Z,6.40
2018-02-13T05:19:25.161Z,7.70
2018-02-13T05:20:25.367Z,7.80
2018-02-13T05:21:25.045Z,7.10
2018-02-13T05:22:25.310Z,7.00
2018-02-13T05:23:25.372Z,7.10
2018-02-13T05:24:25.033Z,6.90
2018-02-13T05:25:25.532Z,6.70
2018-02-13T05:26:46.218Z,6.90
2018-02-13T05:27:46.596Z,7.40
2018-02-13T05:28:46.067Z,7.20
2018-02-13T05:30:29.430Z,7.30
2018-02-13T05:31:29.801Z,6.90
2018-02-13T05:32:30.613Z,6.50
2018-02-13T05:33:51.496Z,7.20
2018-02-13T05:34:50.882Z,6.90
2018-02-13T05:35:51.023Z,6.90
2018-02-13T05:36:52.658Z,6.50
2018-02-13T05:37:51.926Z,6.60
2018-02-13T05:38:51.680Z,6.80
2018-02-13T05:39:51.154Z,6.50
2018-02-13T05:40:51.819Z,7.00
2018-02-13T05:41:51.539Z,6.90
2018-02-13T05:42:51.681Z,7.00
2018-02-13T05:43:51.166Z,6.60
2018-02-13T05:44:51.830Z,6.70
2018-02-13T05:45:51.188Z,6.90
2018-02-13T05:46:51.660Z,7.00
2018-02-13T05:47:51.414Z,7.10
2018-02-13T05:48:51.775Z,6.60
2018-02-13T05:49:51.609Z,6.10
2018-02-13T05:50:51.397Z,6.80
2018-02-13T05:51:51.848Z,6.10
2018-02-13T05:52:51.673Z,6.30
2018-02-13T05:53:51.336Z,6.10
2018-02-13T05:54:52.242Z,6.30
2018-02-13T05:55:51.523Z,5.90
2018-02-13T05:57:43.108Z,6.80
2018-02-13T05:59:18.985Z,6.50
2018-02-13T06:00:22.784Z,6.60
2018-02-13T06:01:19.189Z,6.40
2018-02-13T06:02:20.373Z,5.60
2018-02-13T06:03:20.003Z,6.20
2018-02-13T06:04:19.349Z,5.60
2018-02-13T06:05:19.905Z,5.70
2018-02-13T06:06:20.385Z,5.50
2018-02-13T06:07:19.774Z,6.30
2018-02-13T06:08:19.493Z,5.70
2018-02-13T06:09:40.820Z,5.00
2018-02-13T06:10:41.738Z,5.50
2018-02-13T06:11:41.324Z,5.30
2018-02-13T06:12:41.313Z,5.80
2018-02-13T06:13:41.006Z,5.30
2018-02-13T06:14:41.552Z,5.40
2018-02-13T06:15:41.473Z,5.30
2018-02-13T06:16:41.295Z,4.80
2018-02-13T06:17:42.157Z,5.20
2018-02-13T06:18:40.542Z,5.10
2018-02-13T06:19:41.317Z,4.80
2018-02-13T06:20:41.118Z,4.90
2018-02-13T06:21:41.335Z,4.70
2018-02-13T06:22:41.022Z,5.30
2018-02-13T06:23:41.778Z,5.70
2018-02-13T06:24:41.566Z,5.60
2018-02-13T06:25:41.150Z,4.90
2018-02-13T06:26:40.638Z,5.40
2018-02-13T06:27:40.996Z,5.10
2018-02-13T06:28:40.803Z,4.90
2018-02-13T06:29:41.526Z,5.40
2018-02-13T06:30:40.861Z,4.90
2018-02-13T06:31:41.250Z,5.10
2018-02-13T06:32:40.712Z,5.10
2018-02-13T06:33:41.483Z,5.20
2018-02-13T06:34:41.337Z,4.70
2018-02-13T06:35:40.458Z,5.60
2018-02-13T06:36:40.870Z,5.80
2018-02-13T06:37:41.663Z,5.00
2018-02-13T06:38:41.000Z,5.60
2018-02-13T06:39:41.525Z,4.90
2018-02-13T06:40:41.725Z,5.60
2018-02-13T06:41:40.977Z,5.20
2018-02-13T06:42:40.464Z,4.90
2018-02-13T06:43:41.261Z,5.30
2018-02-13T06:44:40.879Z,5.20
2018-02-13T06:45:41.786Z,4.90
2018-02-13T06:46:41.532Z,5.20
2018-02-13T06:47:40.986Z,5.00
2018-02-13T06:48:40.849Z,5.30
2018-02-13T06:49:41.082Z,4.80
2018-02-13T06:50:40.478Z,5.00
2018-02-13T06:51:41.143Z,5.60
2018-02-13T06:52:40.484Z,4.90
2018-02-13T06:53:41.269Z,4.70
2018-02-13T06:54:40.515Z,5.40
2018-02-13T06:55:42.493Z,5.30
2018-02-13T06:56:41.031Z,5.20
2018-02-13T06:57:40.413Z,5.60
2018-02-13T06:59:02.582Z,5.30
2018-02-13T07:00:02.960Z,5.50
2018-02-13T07:01:02.269Z,5.40
2018-02-13T07:02:02.420Z,5.10
2018-02-13T07:03:03.256Z,5.20
2018-02-13T07:04:02.920Z,5.60
2018-02-13T07:05:02.135Z,4.80
2018-02-13T07:06:24.583Z,5.40
2018-02-13T07:07:46.297Z,5.00
2018-02-13T07:08:47.133Z,4.60
2018-02-13T07:10:08.285Z,5.10
2018-02-13T07:11:08.852Z,5.50
2018-02-13T07:12:08.489Z,5.40
2018-02-13T07:13:08.205Z,4.60
2018-02-13T07:14:30.153Z,5.20
2018-02-13T07:15:31.754Z,5.20
2018-02-13T07:16:30.514Z,4.90
2018-02-13T07:17:30.547Z,5.80
2018-02-13T07:18:30.122Z,5.70
2018-02-13T07:19:30.919Z,5.50
2018-02-13T07:20:30.530Z,4.80
2018-02-13T07:21:51.409Z,5.40
2018-02-13T07:22:52.200Z,5.60
2018-02-13T07:23:51.783Z,6.00
2018-02-13T07:24:52.186Z,6.70
2018-02-13T07:25:51.834Z,6.30
2018-02-13T07:26:52.633Z,6.10
2018-02-13T07:28:13.788Z,5.20
2018-02-13T07:29:14.111Z,5.30
2018-02-13T07:30:13.980Z,5.90
2018-02-13T07:31:13.879Z,5.50
2018-02-13T07:32:14.363Z,5.50
2018-02-13T07:33:14.200Z,5.20
2018-02-13T07:34:34.797Z,5.90
2018-02-13T07:35:35.095Z,6.00
2018-02-13T07:36:35.925Z,5.30
2018-02-13T07:37:35.390Z,5.60
2018-02-13T07:38:35.139Z,5.90
2018-02-13T07:39:57.017Z,5.10
2018-02-13T07:40:57.473Z,5.00
2018-02-13T07:41:58.198Z,5.10
2018-02-13T07:43:19.440Z,5.30
2018-02-13T07:44:20.175Z,5.20
2018-02-13T07:45:19.531Z,4.90
2018-02-13T07:46:41.324Z,4.70
2018-02-13T07:47:41.676Z,4.70
2018-02-13T07:48:42.904Z,5.20
2018-02-13T07:50:03.598Z,4.50
2018-02-13T07:51:04.521Z,4.60
2018-02-13T07:52:03.977Z,4.80
2018-02-13T07:53:04.841Z,4.90
2018-02-13T07:54:04.381Z,4.80
2018-02-13T07:55:03.914Z,4.40
2018-02-13T07:56:04.582Z,4.60
2018-02-13T07:57:03.997Z,4.30
2018-02-13T07:58:04.497Z,4.50
2018-02-13T07:59:04.118Z,4.20
2018-02-13T08:00:04.834Z,4.60
2018-02-13T08:01:04.831Z,4.70
2018-02-13T08:02:04.173Z,4.30
2018-02-13T08:03:04.570Z,4.30
2018-02-13T08:04:04.796Z,4.00
2018-02-13T08:05:04.339Z,4.60
2018-02-13T08:06:03.838Z,3.90
2018-02-13T08:07:04.352Z,4.40
2018-02-13T08:08:04.020Z,3.90
2018-02-13T08:09:25.971Z,3.80
2018-02-13T08:10:51.144Z,4.20
2018-02-13T08:11:50.785Z,3.70
2018-02-13T08:12:50.463Z,5.10
2018-02-13T08:13:50.974Z,4.60
2018-02-13T08:14:50.258Z,4.60
2018-02-13T08:15:50.687Z,4.10
2018-02-13T08:16:50.281Z,4.20
2018-02-13T08:17:50.841Z,3.70
2018-02-13T08:18:50.834Z,4.80
2018-02-13T08:20:12.130Z,4.00
2018-02-13T08:21:12.584Z,4.10
2018-02-13T08:22:12.083Z,4.40
2018-02-13T08:23:34.181Z,3.60
2018-02-13T08:24:34.994Z,4.10
2018-02-13T08:25:34.875Z,3.90
2018-02-13T08:26:34.497Z,4.00
2018-02-13T08:27:35.201Z,4.50
2018-02-13T08:28:34.887Z,3.70
2018-02-13T08:29:34.390Z,4.40
2018-02-13T08:30:35.325Z,4.50
2018-02-13T08:31:34.912Z,4.10
2018-02-13T08:32:34.344Z,4.60
2018-02-13T08:33:34.952Z,4.40
2018-02-13T08:34:34.680Z,4.10
2018-02-13T08:35:34.171Z,4.50
2018-02-13T08:36:34.609Z,4.50
2018-02-13T08:37:55.602Z,4.20
2018-02-13T08:38:56.335Z,4.20
2018-02-13T08:39:56.158Z,4.10
2018-02-13T08:40:56.046Z,4.10
2018-02-13T08:41:56.924Z,4.30
2018-02-13T08:42:56.762Z,3.70
2018-02-13T08:43:56.490Z,3.40
2018-02-13T08:45:17.262Z,3.60
2018-02-13T08:46:17.760Z,4.10
2018-02-13T08:47:17.209Z,3.70
2018-02-13T08:48:17.887Z,3.60
2018-02-13T08:49:17.783Z,3.40
2018-02-13T08:50:17.502Z,3.60
2018-02-13T08:51:39.091Z,3.60
2018-02-13T08:52:40.253Z,4.00
2018-02-13T08:53:39.949Z,3.80
2018-02-13T08:54:39.695Z,4.10
2018-02-13T08:56:00.725Z,3.60
2018-02-13T08:57:01.262Z,3.90
2018-02-13T08:58:01.006Z,4.10
2018-02-13T08:59:01.314Z,3.80
2018-02-13T09:00:01.017Z,3.30
2018-02-13T09:01:01.339Z,3.70
2018-02-13T09:02:01.248Z,3.90
2018-02-13T09:03:00.905Z,3.80
2018-02-13T09:04:23.282Z,3.30
2018-02-13T09:05:24.119Z,3.60
2018-02-13T09:06:23.927Z,3.40
2018-02-13T09:08:06.089Z,3.00
2018-02-13T09:09:06.438Z,3.30
2018-02-13T09:10:07.053Z,3.80
2018-02-13T09:11:06.462Z,3.50
2018-02-13T09:12:07.246Z,3.00
2018-02-13T09:13:07.019Z,3.20
2018-02-13T09:14:06.968Z,3.30
2018-02-13T09:15:06.783Z,3.30
2018-02-13T09:16:06.539Z,3.30
2018-02-13T09:17:06.885Z,3.20
2018-02-13T09:18:06.299Z,3.50
2018-02-13T09:19:07.031Z,3.40
2018-02-13T09:20:06.456Z,3.50
2018-02-13T09:21:28.276Z,6.00
2018-02-13T09:22:51.261Z,3.30
2018-02-13T09:23:53.436Z,3.60
2018-02-13T09:24:51.817Z,3.50
2018-02-13T09:25:52.518Z,3.40
2018-02-13T09:26:53.565Z,4.50
2018-02-13T09:27:52.375Z,7.70
2018-02-13T09:28:51.923Z,3.40
2018-02-13T09:29:51.748Z,3.50
2018-02-13T09:30:52.218Z,3.90
2018-02-13T09:32:13.092Z,4.30
2018-02-13T09:33:13.752Z,3.30
2018-02-13T09:34:13.364Z,3.60
2018-02-13T09:35:13.923Z,4.00
2018-02-13T09:36:36.119Z,5.00
2018-02-13T09:37:35.740Z,5.30
2018-02-13T09:39:19.228Z,2.90
2018-02-13T09:40:19.715Z,3.90
2018-02-13T09:41:20.150Z,3.70
2018-02-13T09:42:19.614Z,3.70
2018-02-13T09:43:20.318Z,3.80
2018-02-13T09:44:20.661Z,3.40
2018-02-13T09:45:20.523Z,3.70
2018-02-13T09:46:20.193Z,3.80
2018-02-13T09:47:19.857Z,3.80
2018-02-13T09:48:41.051Z,3.40
2018-02-13T09:49:41.642Z,3.40
2018-02-13T09:50:41.534Z,4.00
2018-02-13T09:51:42.204Z,4.00
2018-02-13T09:52:42.082Z,4.20
2018-02-13T09:53:41.541Z,3.60
2018-02-13T09:54:41.221Z,3.70
2018-02-13T09:55:41.928Z,3.40
2018-02-13T09:57:03.514Z,4.50
2018-02-13T09:58:04.371Z,4.30
2018-02-13T09:59:04.338Z,4.20
2018-02-13T10:00:04.446Z,3.80
2018-02-13T10:01:05.889Z,4.30
2018-02-13T10:02:03.489Z,4.10
2018-02-13T10:03:46.990Z,3.90
2018-02-13T10:04:47.334Z,3.50
2018-02-13T10:05:46.757Z,3.90
2018-02-13T10:07:08.842Z,4.20
2018-02-13T10:08:09.295Z,3.80
2018-02-13T10:09:08.673Z,3.80
2018-02-13T10:10:09.505Z,3.90
2018-02-13T10:11:09.333Z,4.20
2018-02-13T10:12:09.130Z,3.70
2018-02-13T10:13:30.447Z,3.70
2018-02-13T10:14:31.289Z,3.50
2018-02-13T10:15:31.371Z,4.00
2018-02-13T10:16:31.182Z,4.20
2018-02-13T10:17:31.517Z,3.90
2018-02-13T10:18:52.662Z,4.20
2018-02-13T10:19:53.520Z,4.40
2018-02-13T10:20:53.143Z,3.90
2018-02-13T10:21:52.809Z,4.20
2018-02-13T10:22:53.562Z,3.40
2018-02-13T10:23:53.025Z,4.30
2018-02-13T10:24:53.730Z,3.80
2018-02-13T10:25:53.169Z,4.20
2018-02-13T10:26:52.630Z,3.90
2018-02-13T10:27:53.695Z,3.80
2018-02-13T10:28:53.122Z,3.20
2018-02-13T10:29:53.169Z,3.90
2018-02-13T10:30:52.689Z,3.80
2018-02-13T10:31:54.097Z,3.60
2018-02-13T10:32:54.330Z,3.80
2018-02-13T10:33:53.235Z,3.30
2018-02-13T10:34:52.574Z,3.60
2018-02-13T10:35:53.376Z,4.10
2018-02-13T10:36:52.826Z,3.90
2018-02-13T10:37:53.932Z,4.20
2018-02-13T10:38:53.912Z,4.00
2018-02-13T10:39:53.577Z,3.90
2018-02-13T10:40:52.987Z,3.80
2018-02-13T10:41:53.536Z,3.80
2018-02-13T10:42:53.461Z,3.60
2018-02-13T10:43:53.007Z,3.50
2018-02-13T10:44:52.983Z,3.50
2018-02-13T10:45:53.314Z,3.70
2018-02-13T10:46:52.834Z,3.40
2018-02-13T10:47:53.627Z,4.10
2018-02-13T10:48:53.782Z,3.90
2018-02-13T10:49:53.797Z,4.00
2018-02-13T10:50:53.277Z,3.90
2018-02-13T10:51:52.765Z,3.70
2018-02-13T10:52:53.255Z,4.30
2018-02-13T10:53:53.229Z,3.50
2018-02-13T10:54:53.141Z,3.90
2018-02-13T10:55:52.654Z,3.40
2018-02-13T10:56:53.216Z,4.30
2018-02-13T10:57:53.080Z,3.10
2018-02-13T10:58:53.070Z,3.60
2018-02-13T10:59:53.013Z,3.70
2018-02-13T11:00:52.983Z,3.60
2018-02-13T11:01:53.670Z,3.00
2018-02-13T11:02:53.401Z,3.20
2018-02-13T11:03:53.050Z,3.30
2018-02-13T11:04:52.661Z,3.50
2018-02-13T11:05:53.462Z,3.50
2018-02-13T11:07:15.736Z,3.40
2018-02-13T11:08:15.403Z,3.40
2018-02-13T11:09:15.137Z,3.20
2018-02-13T11:10:14.854Z,3.50
2018-02-13T11:11:36.396Z,2.90
2018-02-13T11:12:37.283Z,3.30
2018-02-13T11:13:36.721Z,3.40
2018-02-13T11:14:36.812Z,4.00
2018-02-13T11:15:36.259Z,3.20
2018-02-13T11:16:37.556Z,3.00
2018-02-13T11:17:37.076Z,3.40
2018-02-13T11:18:36.922Z,2.70
2018-02-13T11:19:36.655Z,2.90
2018-02-13T11:20:36.182Z,4.30
2018-02-13T11:21:36.721Z,2.60
2018-02-13T11:22:36.343Z,3.30
2018-02-13T11:23:36.913Z,3.00
2018-02-13T11:24:37.200Z,2.50
2018-02-13T11:25:37.110Z,2.70
2018-02-13T11:26:37.128Z,2.80
2018-02-13T11:27:36.930Z,2.90
2018-02-13T11:28:36.564Z,2.80
2018-02-13T11:29:37.357Z,2.50
2018-02-13T11:30:37.125Z,2.90
2018-02-13T11:31:37.098Z,3.00
2018-02-13T11:32:37.097Z,2.80
2018-02-13T11:33:36.760Z,3.00
2018-02-13T11:34:36.302Z,3.00
2018-02-13T11:35:37.254Z,2.70
2018-02-13T11:36:36.812Z,2.40
2018-02-13T11:37:36.460Z,2.80
2018-02-13T11:38:37.005Z,2.30
2018-02-13T11:39:58.170Z,2.20
2018-02-13T11:40:59.351Z,3.00
2018-02-13T11:41:59.168Z,3.00
2018-02-13T11:42:59.170Z,3.30
2018-02-13T11:44:20.348Z,2.80
2018-02-13T11:45:21.240Z,2.90
2018-02-13T11:46:21.137Z,2.60
2018-02-13T11:48:25.818Z,2.80
2018-02-13T11:49:26.587Z,2.90
2018-02-13T11:50:26.411Z,2.70
2018-02-13T11:51:47.042Z,3.50
2018-02-13T11:53:09.013Z,3.70
2018-02-13T11:54:09.594Z,3.20
2018-02-13T11:55:09.454Z,2.80
2018-02-13T11:56:09.975Z,2.60
2018-02-13T11:57:09.523Z,3.00
2018-02-13T11:58:09.430Z,3.50
2018-02-13T11:59:09.540Z,3.00
2018-02-13T12:00:09.604Z,2.90
2018-02-13T12:01:09.511Z,3.00
2018-02-13T12:02:10.425Z,3.20
2018-02-13T12:03:09.329Z,3.30
2018-02-13T12:04:09.985Z,2.80
2018-02-13T12:05:09.481Z,3.10
2018-02-13T12:06:09.428Z,2.60
2018-02-13T12:07:31.524Z,3.40
2018-02-13T12:08:52.259Z,3.10
2018-02-13T12:09:53.174Z,3.00
2018-02-13T12:10:53.074Z,2.90
2018-02-13T12:12:35.708Z,2.90
2018-02-13T12:13:36.620Z,3.20
2018-02-13T12:14:36.398Z,3.00
2018-02-13T12:15:36.034Z,3.20
2018-02-13T12:16:35.911Z,2.90
2018-02-13T12:17:36.392Z,3.00
2018-02-13T12:18:36.390Z,3.00
2018-02-13T12:19:35.754Z,3.20
2018-02-13T12:20:58.378Z,3.10
2018-02-13T12:21:58.090Z,3.20
2018-02-13T12:22:58.953Z,2.80
2018-02-13T12:24:00.308Z,2.50
2018-02-13T12:25:20.034Z,3.10
2018-02-13T12:26:20.783Z,2.50
2018-02-13T12:27:20.674Z,2.60
2018-02-13T12:28:20.437Z,3.00
2018-02-13T12:29:20.100Z,2.70
2018-02-13T12:30:19.791Z,3.10
2018-02-13T12:31:20.480Z,3.00
2018-02-13T12:32:19.943Z,3.00
2018-02-13T12:33:22.278Z,2.90
2018-02-13T12:34:20.047Z,3.30
2018-02-13T12:35:20.018Z,3.00
2018-02-13T12:36:42.573Z,2.40
2018-02-13T12:37:43.358Z,3.00
2018-02-13T12:39:03.942Z,2.80
2018-02-13T12:40:04.491Z,2.90
2018-02-13T12:41:04.514Z,3.20
2018-02-13T12:42:04.334Z,3.10
2018-02-13T12:43:04.273Z,3.20
2018-02-13T12:44:04.265Z,2.80
2018-02-13T12:45:05.199Z,2.30
2018-02-13T12:46:05.776Z,2.90
2018-02-13T12:47:04.300Z,2.70
2018-02-13T12:48:04.652Z,3.20
2018-02-13T12:49:04.389Z,3.20
2018-02-13T12:50:04.295Z,2.60
2018-02-13T12:51:26.077Z,2.70
2018-02-13T12:52:26.318Z,3.20
2018-02-13T12:53:26.051Z,3.30
2018-02-13T12:54:26.830Z,2.80
2018-02-13T12:55:26.190Z,2.80
2018-02-13T12:56:25.554Z,3.10
2018-02-13T12:57:26.053Z,3.10
2018-02-13T12:58:25.985Z,3.20
2018-02-13T12:59:25.888Z,2.70
2018-02-13T13:00:48.303Z,2.80
2018-02-13T13:01:48.899Z,3.80
2018-02-13T13:02:48.515Z,2.70
2018-02-13T13:03:51.592Z,3.10
2018-02-13T13:04:49.728Z,3.20
2018-02-13T13:05:49.170Z,3.20
2018-02-13T13:07:32.388Z,3.10
2018-02-13T13:08:32.848Z,3.10
2018-02-13T13:09:33.359Z,3.20
2018-02-13T13:10:54.280Z,3.10
2018-02-13T13:11:54.290Z,3.00
2018-02-13T13:13:15.990Z,3.70
2018-02-13T13:14:15.547Z,3.30
2018-02-13T13:15:16.227Z,2.70
2018-02-13T13:16:16.032Z,2.80
2018-02-13T13:17:16.086Z,2.50
2018-02-13T13:18:15.918Z,3.00
2018-02-13T13:19:16.904Z,2.90
2018-02-13T13:20:38.851Z,2.90
2018-02-13T13:21:39.228Z,2.70
2018-02-13T13:22:38.896Z,2.90
2018-02-13T13:24:00.234Z,2.80
2018-02-13T13:25:00.901Z,2.80
2018-02-13T13:26:00.225Z,2.90
2018-02-13T13:27:01.022Z,2.70
2018-02-13T13:28:00.943Z,3.20
2018-02-13T13:29:00.670Z,2.70
2018-02-13T13:30:01.262Z,2.50
2018-02-13T13:31:00.891Z,2.50
2018-02-13T13:32:01.080Z,2.60
2018-02-13T13:33:01.095Z,2.90
2018-02-13T13:34:00.810Z,2.80
2018-02-13T13:35:00.750Z,3.00
2018-02-13T13:36:01.002Z,3.10
2018-02-13T13:37:00.706Z,3.00
2018-02-13T13:38:01.378Z,3.10
2018-02-13T13:39:01.213Z,3.30
2018-02-13T13:40:00.891Z,3.10
2018-02-13T13:41:00.531Z,2.90
2018-02-13T13:42:02.459Z,3.30
2018-02-13T13:43:01.956Z,3.70